Lod/Ben Gurion Airport, Israel

8:02 PM IST on December 02, 2016 (GMT +0200)
Ben-Shemen | | Change Station

Elev 197 ft 31.95 °N, 34.92 °E | Updated 2 minutes ago

Partly Cloudy
Partly Cloudy
54.7 °F
Feels Like 54.7 °F
N
3.1
Wind Variable Wind from SW
Gusts 3.1 mph

Today
High -- | Low -- °F
--% Chance of Precip.
Yesterday
High -- | Low -- °F
Precip. -- in
Pressure 30.12 in
Visibility 6.2 miles
Clouds Few 1500 ft
Dew Point 54 °F
Humidity 99%
Rainfall 3.71 in
Snow Depth Not available.
6:24 AM 4:35 PM
Waxing Crescent, 9% visible
METAR LLBG 021750Z 23004KT 9999 FEW015 15/10 Q1020 NOSIG RMK SCT070
Pressure 30.12 in
Visibility 6.2 miles
Clouds Few 1500 ft
Dew Point 54 °F
Humidity 99%
Rainfall 3.71 in
Snow Depth Not available.
6:24 AM 4:35 PM
Waxing Crescent, 9% visible
METAR LLBG 021750Z 23004KT 9999 FEW015 15/10 Q1020 NOSIG RMK SCT070

10-Day Weather Forecast

No radar image for this location.
×

Almanac

Astronomy

Dec. 02, 2016 Rise Set
Actual Time
Civil Twilight
Nautical Twilight
Astronomical Twilight
Moon
Length of Visible Light
Length of Day
Tomorrow will be .
, % of the Moon is Illuminated

Today's Extremes

Country Highs Country Lows

Community

WunderPhotos

Upload Photos

1,955,333 photos uploaded!

WunderBlog® & News

Nearby

Air Quality

  Air Quality AQ Index Pollutant
Not available.

Snow Depth

Station Depth Elevation

Earthquake Activity

City Distance Mag. Time & Date
Minimum magnitude displayed is 2.5.

Coastal Water Temperatures

Place Temperature

Stations

Nearby Weather Stations

Station Location Temp. Windchill Dew Point Humidity Wind Precip. Elev Updated Type